Bullard, Texas
Current Conditions -  °F | °C
As of 11:53 PM on Sunday 19 Oct 2014 (Local Time) from KTYR Reporting Station
Clear Clear  
Wind Chill: 62°   Ceiling: Unl
Heat Index: 62°   Visibility: 10mi
Dew Point: 52°   Wind: 6mph
Humidity: 70%   Direction: 100°E
Pressure: 30.07"   Gusts: NA
Location:  32.14°N, 95.32°W
Report Text: KTYR 200453Z AUTO 10005KT 10SM CLR 17/11 A3007 RMK AO2 SLP178 T01670111
Loading
Personal Weather Stations






























Interactive Weather Map
Tropical Storm Tracking
New forecast layout! Learn more

10-Day Weather Forecast

Advertisements
Track Severe Weather on mobile